sensor_id;sensor_type;location;lat;lon;timestamp;pressure;altitude;pressure_sealevel;temperature
43292;BMP280;28754;47.700;7.924;2023-12-20T00:02:03;91438.25;;;6.00
43292;BMP280;28754;47.700;7.924;2023-12-20T00:04:49;91441.53;;;6.01
43292;BMP280;28754;47.700;7.924;2023-12-20T00:07:36;91431.38;;;6.01
43292;BMP280;28754;47.700;7.924;2023-12-20T00:10:23;91428.41;;;6.04
43292;BMP280;28754;47.700;7.924;2023-12-20T00:13:10;91425.31;;;6.02
43292;BMP280;28754;47.700;7.924;2023-12-20T00:15:57;91420.69;;;5.99
43292;BMP280;28754;47.700;7.924;2023-12-20T00:18:43;91419.47;;;6.01
43292;BMP280;28754;47.700;7.924;2023-12-20T00:21:30;91414.66;;;6.05
43292;BMP280;28754;47.700;7.924;2023-12-20T00:24:16;91420.31;;;6.07
43292;BMP280;28754;47.700;7.924;2023-12-20T00:27:03;91419.22;;;6.03
43292;BMP280;28754;47.700;7.924;2023-12-20T00:29:50;91407.19;;;5.98
43292;BMP280;28754;47.700;7.924;2023-12-20T00:32:38;91411.50;;;5.98
43292;BMP280;28754;47.700;7.924;2023-12-20T00:35:24;91412.53;;;5.97
43292;BMP280;28754;47.700;7.924;2023-12-20T00:38:11;91412.97;;;5.94
43292;BMP280;28754;47.700;7.924;2023-12-20T00:40:58;91411.66;;;5.91
43292;BMP280;28754;47.700;7.924;2023-12-20T00:43:44;91413.50;;;5.96
43292;BMP280;28754;47.700;7.924;2023-12-20T00:46:31;91409.19;;;5.96
43292;BMP280;28754;47.700;7.924;2023-12-20T00:49:18;91407.88;;;5.94
43292;BMP280;28754;47.700;7.924;2023-12-20T00:52:05;91405.34;;;5.94
43292;BMP280;28754;47.700;7.924;2023-12-20T00:54:51;91392.56;;;5.89
43292;BMP280;28754;47.700;7.924;2023-12-20T00:57:38;91393.31;;;5.89
43292;BMP280;28754;47.700;7.924;2023-12-20T01:00:25;91393.09;;;5.91
43292;BMP280;28754;47.700;7.924;2023-12-20T01:03:11;91390.56;;;5.91
43292;BMP280;28754;47.700;7.924;2023-12-20T01:05:58;91395.56;;;5.86
43292;BMP280;28754;47.700;7.924;2023-12-20T01:08:45;91397.66;;;5.89
43292;BMP280;28754;47.700;7.924;2023-12-20T01:11:31;91391.31;;;5.91
43292;BMP280;28754;47.700;7.924;2023-12-20T01:14:18;91395.19;;;5.94
43292;BMP280;28754;47.700;7.924;2023-12-20T01:17:05;91390.56;;;5.91
43292;BMP280;28754;47.700;7.924;2023-12-20T01:19:52;91385.91;;;5.88
43292;BMP280;28754;47.700;7.924;2023-12-20T01:22:38;91392.78;;;5.87
43292;BMP280;28754;47.700;7.924;2023-12-20T01:25:25;91395.56;;;5.86
43292;BMP280;28754;47.700;7.924;2023-12-20T01:28:12;91389.94;;;5.84
43292;BMP280;28754;47.700;7.924;2023-12-20T01:30:58;91391.94;;;5.82
43292;BMP280;28754;47.700;7.924;2023-12-20T01:33:45;91386.72;;;5.88
43292;BMP280;28754;47.700;7.924;2023-12-20T01:36:32;91382.41;;;5.89
43292;BMP280;28754;47.700;7.924;2023-12-20T01:39:19;91400.09;;;5.84
43292;BMP280;28754;47.700;7.924;2023-12-20T01:42:05;91392.94;;;5.81
43292;BMP280;28754;47.700;7.924;2023-12-20T01:44:52;91402.09;;;5.82
43292;BMP280;28754;47.700;7.924;2023-12-20T01:47:39;91399.84;;;5.85
43292;BMP280;28754;47.700;7.924;2023-12-20T01:50:27;91404.72;;;5.87
43292;BMP280;28754;47.700;7.924;2023-12-20T01:53:14;91398.63;;;5.88
43292;BMP280;28754;47.700;7.924;2023-12-20T01:56:01;91405.81;;;5.91
43292;BMP280;28754;47.700;7.924;2023-12-20T01:58:48;91408.56;;;5.89
43292;BMP280;28754;47.700;7.924;2023-12-20T02:01:35;91394.41;;;5.93
43292;BMP280;28754;47.700;7.924;2023-12-20T02:04:22;91389.81;;;5.90
43292;BMP280;28754;47.700;7.924;2023-12-20T02:07:11;91394.75;;;5.97
43292;BMP280;28754;47.700;7.924;2023-12-20T02:09:57;91394.75;;;5.97
43292;BMP280;28754;47.700;7.924;2023-12-20T02:12:44;91390.56;;;5.91
43292;BMP280;28754;47.700;7.924;2023-12-20T02:15:31;91389.81;;;5.90
43292;BMP280;28754;47.700;7.924;2023-12-20T02:18:18;91391.31;;;5.91
43292;BMP280;28754;47.700;7.924;2023-12-20T02:21:05;91392.63;;;5.94
43292;BMP280;28754;47.700;7.924;2023-12-20T02:23:52;91382.47;;;5.94
43292;BMP280;28754;47.700;7.924;2023-12-20T02:26:39;91386.09;;;5.98
43292;BMP280;28754;47.700;7.924;2023-12-20T02:29:27;91383.56;;;5.98
43292;BMP280;28754;47.700;7.924;2023-12-20T02:32:13;91378.41;;;5.93
43292;BMP280;28754;47.700;7.924;2023-12-20T02:35:00;91367.16;;;5.89
43292;BMP280;28754;47.700;7.924;2023-12-20T02:37:47;91363.59;;;5.90
43292;BMP280;28754;47.700;7.924;2023-12-20T02:40:34;91353.00;;;5.93
43292;BMP280;28754;47.700;7.924;2023-12-20T02:43:20;91348.34;;;5.90
43292;BMP280;28754;47.700;7.924;2023-12-20T02:46:07;91353.00;;;5.93
43292;BMP280;28754;47.700;7.924;2023-12-20T02:48:53;91349.16;;;5.90
43292;BMP280;28754;47.700;7.924;2023-12-20T02:51:40;91347.38;;;5.91
43292;BMP280;28754;47.700;7.924;2023-12-20T02:54:27;91343.75;;;5.87
43292;BMP280;28754;47.700;7.924;2023-12-20T02:57:13;91353.28;;;5.80
43292;BMP280;28754;47.700;7.924;2023-12-20T03:00:00;91351.44;;;5.76
43292;BMP280;28754;47.700;7.924;2023-12-20T03:02:47;91354.19;;;5.74
43292;BMP280;28754;47.700;7.924;2023-12-20T03:05:33;91348.34;;;5.74
43292;BMP280;28754;47.700;7.924;2023-12-20T03:08:20;91352.66;;;5.73
43292;BMP280;28754;47.700;7.924;2023-12-20T03:11:07;91358.63;;;5.67
43292;BMP280;28754;47.700;7.924;2023-12-20T03:13:53;91383.00;;;5.68
43292;BMP280;28754;47.700;7.924;2023-12-20T03:16:40;91354.78;;;5.65
43292;BMP280;28754;47.700;7.924;2023-12-20T03:19:27;91363.69;;;5.67
43292;BMP280;28754;47.700;7.924;2023-12-20T03:22:13;91362.03;;;5.73
43292;BMP280;28754;47.700;7.924;2023-12-20T03:25:00;91362.81;;;5.73
43292;BMP280;28754;47.700;7.924;2023-12-20T03:27:46;91368.69;;;5.74
43292;BMP280;28754;47.700;7.924;2023-12-20T03:30:33;91370.97;;;5.75
43292;BMP280;28754;47.700;7.924;2023-12-20T03:33:20;91378.59;;;5.75
43292;BMP280;28754;47.700;7.924;2023-12-20T03:36:07;91378.47;;;5.70
43292;BMP280;28754;47.700;7.924;2023-12-20T03:38:53;91376.63;;;5.66
43292;BMP280;28754;47.700;7.924;2023-12-20T03:41:40;91384.47;;;5.64
43292;BMP280;28754;47.700;7.924;2023-12-20T03:44:27;91380.41;;;5.63
43292;BMP280;28754;47.700;7.924;2023-12-20T03:47:13;91376.84;;;5.64
43292;BMP280;28754;47.700;7.924;2023-12-20T03:50:00;91384.16;;;5.61
43292;BMP280;28754;47.700;7.924;2023-12-20T03:52:47;91370.16;;;5.58
43292;BMP280;28754;47.700;7.924;2023-12-20T03:55:33;91375.25;;;5.58
43292;BMP280;28754;47.700;7.924;2023-12-20T03:58:20;91376.75;;;5.59
43292;BMP280;28754;47.700;7.924;2023-12-20T04:01:10;91388.00;;;5.63
43292;BMP280;28754;47.700;7.924;2023-12-20T04:03:58;91387.25;;;5.63
43292;BMP280;28754;47.700;7.924;2023-12-20T04:06:45;91392.34;;;5.63
43292;BMP280;28754;47.700;7.924;2023-12-20T04:09:31;91398.66;;;5.60
43292;BMP280;28754;47.700;7.924;2023-12-20T04:12:19;91399.63;;;5.59
43292;BMP280;28754;47.700;7.924;2023-12-20T04:15:06;91399.06;;;5.57
43292;BMP280;28754;47.700;7.924;2023-12-20T04:17:55;91409.44;;;5.56
43292;BMP280;28754;47.700;7.924;2023-12-20T04:20:42;91407.72;;;5.56
43292;BMP280;28754;47.700;7.924;2023-12-20T04:23:28;91412.53;;;5.58
43292;BMP280;28754;47.700;7.924;2023-12-20T04:26:15;91403.72;;;5.60
43292;BMP280;28754;47.700;7.924;2023-12-20T04:29:02;91396.09;;;5.60
43292;BMP280;28754;47.700;7.924;2023-12-20T04:31:49;91409.78;;;5.59
43292;BMP280;28754;47.700;7.924;2023-12-20T04:34:38;91398.66;;;5.60
43292;BMP280;28754;47.700;7.924;2023-12-20T04:37:25;91406.78;;;5.62
43292;BMP280;28754;47.700;7.924;2023-12-20T04:40:11;91402.16;;;5.59
43292;BMP280;28754;47.700;7.924;2023-12-20T04:42:58;91428.56;;;5.58
43292;BMP280;28754;47.700;7.924;2023-12-20T04:45:45;91424.47;;;5.57
43292;BMP280;28754;47.700;7.924;2023-12-20T04:48:31;91413.34;;;5.58
43292;BMP280;28754;47.700;7.924;2023-12-20T04:51:18;91405.25;;;5.61
43292;BMP280;28754;47.700;7.924;2023-12-20T04:54:05;91414.72;;;5.66
43292;BMP280;28754;47.700;7.924;2023-12-20T04:56:51;91424.66;;;5.67
43292;BMP280;28754;47.700;7.924;2023-12-20T04:59:38;91422.13;;;5.67
43292;BMP280;28754;47.700;7.924;2023-12-20T05:02:25;91425.09;;;5.64
43292;BMP280;28754;47.700;7.924;2023-12-20T05:05:11;91423.03;;;5.61
43292;BMP280;28754;47.700;7.924;2023-12-20T05:07:58;91428.88;;;5.62
43292;BMP280;28754;47.700;7.924;2023-12-20T05:10:45;91422.56;;;5.64
43292;BMP280;28754;47.700;7.924;2023-12-20T05:13:32;91415.50;;;5.66
43292;BMP280;28754;47.700;7.924;2023-12-20T05:16:18;91407.88;;;5.66
43292;BMP280;28754;47.700;7.924;2023-12-20T05:19:05;91416.03;;;5.68
43292;BMP280;28754;47.700;7.924;2023-12-20T05:21:53;91432.03;;;5.69
43292;BMP280;28754;47.700;7.924;2023-12-20T05:24:39;91436.91;;;5.70
43292;BMP280;28754;47.700;7.924;2023-12-20T05:27:26;91427.75;;;5.69
43292;BMP280;28754;47.700;7.924;2023-12-20T05:30:13;91417.34;;;5.71
43292;BMP280;28754;47.700;7.924;2023-12-20T05:33:00;91419.69;;;5.72
43292;BMP280;28754;47.700;7.924;2023-12-20T05:35:47;91430.84;;;5.71
43292;BMP280;28754;47.700;7.924;2023-12-20T05:38:33;91442.00;;;5.70
43292;BMP280;28754;47.700;7.924;2023-12-20T05:41:20;91440.03;;;5.72
43292;BMP280;28754;47.700;7.924;2023-12-20T05:44:08;91440.03;;;5.72
43292;BMP280;28754;47.700;7.924;2023-12-20T05:46:54;91448.19;;;5.74
43292;BMP280;28754;47.700;7.924;2023-12-20T05:49:42;91456.16;;;5.78
43292;BMP280;28754;47.700;7.924;2023-12-20T05:52:28;91446.53;;;5.80
43292;BMP280;28754;47.700;7.924;2023-12-20T05:55:15;91452.44;;;5.85
43292;BMP280;28754;47.700;7.924;2023-12-20T05:58:01;91458.31;;;5.85
43292;BMP280;28754;47.700;7.924;2023-12-20T06:00:48;91460.00;;;5.80
43292;BMP280;28754;47.700;7.924;2023-12-20T06:03:35;91460.75;;;5.81
43292;BMP280;28754;47.700;7.924;2023-12-20T06:06:23;91465.84;;;5.81
43292;BMP280;28754;47.700;7.924;2023-12-20T06:09:10;91464.75;;;5.77
43292;BMP280;28754;47.700;7.924;2023-12-20T06:11:57;91458.69;;;5.78
43292;BMP280;28754;47.700;7.924;2023-12-20T06:14:44;91452.03;;;5.77
43292;BMP280;28754;47.700;7.924;2023-12-20T06:17:31;91463.75;;;5.78
43292;BMP280;28754;47.700;7.924;2023-12-20T06:20:17;91457.88;;;5.77
43292;BMP280;28754;47.700;7.924;2023-12-20T06:23:04;91481.31;;;5.79
43292;BMP280;28754;47.700;7.924;2023-12-20T06:25:51;91472.16;;;5.78
43292;BMP280;28754;47.700;7.924;2023-12-20T06:28:37;91470.91;;;5.81
43292;BMP280;28754;47.700;7.924;2023-12-20T06:31:24;91472.44;;;5.81
43292;BMP280;28754;47.700;7.924;2023-12-20T06:34:11;91474.00;;;5.82
43292;BMP280;28754;47.700;7.924;2023-12-20T06:36:57;91472.22;;;5.83
43292;BMP280;28754;47.700;7.924;2023-12-20T06:39:44;91473.00;;;5.83
43292;BMP280;28754;47.700;7.924;2023-12-20T06:42:30;91480.06;;;5.81
43292;BMP280;28754;47.700;7.924;2023-12-20T06:45:17;91484.50;;;5.86
43292;BMP280;28754;47.700;7.924;2023-12-20T06:48:04;91482.25;;;5.89
43292;BMP280;28754;47.700;7.924;2023-12-20T06:50:51;91490.22;;;5.93
43292;BMP280;28754;47.700;7.924;2023-12-20T06:53:38;91489.22;;;5.94
43292;BMP280;28754;47.700;7.924;2023-12-20T06:56:25;91483.56;;;5.92
43292;BMP280;28754;47.700;7.924;2023-12-20T06:59:11;91490.75;;;5.95
43292;BMP280;28754;47.700;7.924;2023-12-20T07:01:58;91492.28;;;5.96
43292;BMP280;28754;47.700;7.924;2023-12-20T07:04:45;91499.38;;;5.94
43292;BMP280;28754;47.700;7.924;2023-12-20T07:07:31;91508.56;;;5.95
43292;BMP280;28754;47.700;7.924;2023-12-20T07:10:18;91514.94;;;5.97
43292;BMP280;28754;47.700;7.924;2023-12-20T07:13:05;91516.72;;;5.97
43292;BMP280;28754;47.700;7.924;2023-12-20T07:15:52;91518.72;;;5.95
43292;BMP280;28754;47.700;7.924;2023-12-20T07:18:39;91514.06;;;5.92
43292;BMP280;28754;47.700;7.924;2023-12-20T07:21:26;91517.63;;;5.91
43292;BMP280;28754;47.700;7.924;2023-12-20T07:24:12;91518.59;;;5.90
43292;BMP280;28754;47.700;7.924;2023-12-20T07:27:00;91529.00;;;5.88
43292;BMP280;28754;47.700;7.924;2023-12-20T07:29:47;91531.31;;;5.90
43292;BMP280;28754;47.700;7.924;2023-12-20T07:32:33;91529.78;;;5.89
43292;BMP280;28754;47.700;7.924;2023-12-20T07:35:20;91534.94;;;5.94
43292;BMP280;28754;47.700;7.924;2023-12-20T07:38:06;91533.16;;;5.94
43292;BMP280;28754;47.700;7.924;2023-12-20T07:40:53;91530.63;;;5.94
43292;BMP280;28754;47.700;7.924;2023-12-20T07:43:41;91539.34;;;5.98
43292;BMP280;28754;47.700;7.924;2023-12-20T07:46:27;91542.44;;;6.00
43292;BMP280;28754;47.700;7.924;2023-12-20T07:49:14;91544.22;;;6.00
43292;BMP280;28754;47.700;7.924;2023-12-20T07:52:00;91550.63;;;6.02
43292;BMP280;28754;47.700;7.924;2023-12-20T07:54:47;91556.47;;;6.03
43292;BMP280;28754;47.700;7.924;2023-12-20T07:57:34;91557.00;;;6.05
43292;BMP280;28754;47.700;7.924;2023-12-20T08:00:20;91557.47;;;6.02
43292;BMP280;28754;47.700;7.924;2023-12-20T08:03:07;91564.00;;;5.98
43292;BMP280;28754;47.700;7.924;2023-12-20T08:05:54;91553.06;;;5.97
43292;BMP280;28754;47.700;7.924;2023-12-20T08:08:40;91557.94;;;5.99
43292;BMP280;28754;47.700;7.924;2023-12-20T08:11:28;91559.47;;;6.00
43292;BMP280;28754;47.700;7.924;2023-12-20T08:14:15;91567.31;;;5.98
43292;BMP280;28754;47.700;7.924;2023-12-20T08:17:02;91561.47;;;5.98
43292;BMP280;28754;47.700;7.924;2023-12-20T08:19:49;91564.78;;;5.98
43292;BMP280;28754;47.700;7.924;2023-12-20T08:22:35;91545.88;;;5.94
43292;BMP280;28754;47.700;7.924;2023-12-20T08:25:22;91561.91;;;5.95
43292;BMP280;28754;47.700;7.924;2023-12-20T08:28:09;91561.38;;;5.93
43292;BMP280;28754;47.700;7.924;2023-12-20T08:30:55;91567.44;;;5.92
43292;BMP280;28754;47.700;7.924;2023-12-20T08:33:48;91571.19;;;5.89
43292;BMP280;28754;47.700;7.924;2023-12-20T08:36:35;91577.72;;;5.85
43292;BMP280;28754;47.700;7.924;2023-12-20T08:39:21;91566.47;;;5.81
43292;BMP280;28754;47.700;7.924;2023-12-20T08:42:08;91571.88;;;5.85
43292;BMP280;28754;47.700;7.924;2023-12-20T08:44:55;91570.34;;;5.84
43292;BMP280;28754;47.700;7.924;2023-12-20T08:47:41;91569.81;;;5.82
43292;BMP280;28754;47.700;7.924;2023-12-20T08:50:30;91569.56;;;5.83
43292;BMP280;28754;47.700;7.924;2023-12-20T08:53:18;91572.09;;;5.83
43292;BMP280;28754;47.700;7.924;2023-12-20T08:56:05;91581.84;;;5.86
43292;BMP280;28754;47.700;7.924;2023-12-20T08:58:52;91574.97;;;5.87
43292;BMP280;28754;47.700;7.924;2023-12-20T09:01:38;91576.41;;;5.83
43292;BMP280;28754;47.700;7.924;2023-12-20T09:04:25;91568.69;;;5.78
43292;BMP280;28754;47.700;7.924;2023-12-20T09:07:25;91584.94;;;5.77
43292;BMP280;28754;47.700;7.924;2023-12-20T09:10:12;91581.41;;;5.78
43292;BMP280;28754;47.700;7.924;2023-12-20T09:12:59;91584.25;;;5.81
43292;BMP280;28754;47.700;7.924;2023-12-20T09:15:46;91577.97;;;5.84
43292;BMP280;28754;47.700;7.924;2023-12-20T09:18:33;91584.03;;;5.83
43292;BMP280;28754;47.700;7.924;2023-12-20T09:21:20;91587.34;;;5.83
43292;BMP280;28754;47.700;7.924;2023-12-20T09:24:06;91588.44;;;5.87
43292;BMP280;28754;47.700;7.924;2023-12-20T09:26:53;91588.31;;;5.94
43292;BMP280;28754;47.700;7.924;2023-12-20T09:29:40;91584.25;;;5.93
43292;BMP280;28754;47.700;7.924;2023-12-20T09:32:26;91581.16;;;5.91
43292;BMP280;28754;47.700;7.924;2023-12-20T09:35:13;91591.88;;;5.93
43292;BMP280;28754;47.700;7.924;2023-12-20T09:38:01;91601.50;;;5.91
43292;BMP280;28754;47.700;7.924;2023-12-20T09:40:48;91604.47;;;5.88
43292;BMP280;28754;47.700;7.924;2023-12-20T09:43:37;91604.69;;;5.86
43292;BMP280;28754;47.700;7.924;2023-12-20T09:46:26;91612.09;;;5.88
43292;BMP280;28754;47.700;7.924;2023-12-20T09:49:15;91616.41;;;5.87
43292;BMP280;28754;47.700;7.924;2023-12-20T09:52:06;91611.00;;;5.84
43292;BMP280;28754;47.700;7.924;2023-12-20T09:54:55;91609.91;;;5.80
43292;BMP280;28754;47.700;7.924;2023-12-20T09:57:42;91598.63;;;5.76
43292;BMP280;28754;47.700;7.924;2023-12-20T10:00:29;91604.94;;;5.74
43292;BMP280;28754;47.700;7.924;2023-12-20T10:03:16;91592.00;;;5.75
43292;BMP280;28754;47.700;7.924;2023-12-20T10:06:04;91595.53;;;5.74
43292;BMP280;28754;47.700;7.924;2023-12-20T10:08:50;91590.47;;;5.74
43292;BMP280;28754;47.700;7.924;2023-12-20T10:11:39;91582.84;;;5.74
43292;BMP280;28754;47.700;7.924;2023-12-20T10:14:25;91588.69;;;5.75
43292;BMP280;28754;47.700;7.924;2023-12-20T10:17:12;91584.16;;;5.77
43292;BMP280;28754;47.700;7.924;2023-12-20T10:19:59;91579.63;;;5.79
43292;BMP280;28754;47.700;7.924;2023-12-20T10:22:46;91584.94;;;5.77
43292;BMP280;28754;47.700;7.924;2023-12-20T10:25:32;91581.06;;;5.75
43292;BMP280;28754;47.700;7.924;2023-12-20T10:28:19;91569.59;;;5.72
43292;BMP280;28754;47.700;7.924;2023-12-20T10:31:09;91568.59;;;5.73
43292;BMP280;28754;47.700;7.924;2023-12-20T10:34:01;91570.69;;;5.76
43292;BMP280;28754;47.700;7.924;2023-12-20T10:36:48;91571.03;;;5.80
43292;BMP280;28754;47.700;7.924;2023-12-20T10:39:35;91562.38;;;5.81
43292;BMP280;28754;47.700;7.924;2023-12-20T10:42:31;91555.53;;;5.81
43292;BMP280;28754;47.700;7.924;2023-12-20T10:45:18;91552.56;;;5.84
43292;BMP280;28754;47.700;7.924;2023-12-20T10:48:05;91557.19;;;5.87
43292;BMP280;28754;47.700;7.924;2023-12-20T10:50:55;91548.78;;;5.86
43292;BMP280;28754;47.700;7.924;2023-12-20T10:53:42;91547.91;;;5.81
43292;BMP280;28754;47.700;7.924;2023-12-20T10:56:32;91540.75;;;5.78
43292;BMP280;28754;47.700;7.924;2023-12-20T10:59:20;91531.81;;;5.76
43292;BMP280;28754;47.700;7.924;2023-12-20T11:02:06;91528.06;;;5.78
43292;BMP280;28754;47.700;7.924;2023-12-20T11:08:26;91527.50;;;5.76
43292;BMP280;28754;47.700;7.924;2023-12-20T11:11:40;91528.25;;;5.77
43292;BMP280;28754;47.700;7.924;2023-12-20T11:14:52;91527.28;;;5.78
43292;BMP280;28754;47.700;7.924;2023-12-20T11:17:39;91531.56;;;5.77
43292;BMP280;28754;47.700;7.924;2023-12-20T11:20:41;91550.25;;;5.71
43292;BMP280;28754;47.700;7.924;2023-12-20T11:23:30;91545.03;;;5.66
43292;BMP280;28754;47.700;7.924;2023-12-20T11:26:26;91549.81;;;5.63
43292;BMP280;28754;47.700;7.924;2023-12-20T11:38:02;91549.16;;;5.67
43292;BMP280;28754;47.700;7.924;2023-12-20T11:40:50;91549.44;;;5.71
43292;BMP280;28754;47.700;7.924;2023-12-20T11:43:39;91550.38;;;5.76
43292;BMP280;28754;47.700;7.924;2023-12-20T11:46:26;91544.06;;;5.79
43292;BMP280;28754;47.700;7.924;2023-12-20T11:49:13;91537.75;;;5.81
43292;BMP280;28754;47.700;7.924;2023-12-20T11:52:00;91538.28;;;5.83
43292;BMP280;28754;47.700;7.924;2023-12-20T11:54:46;91523.81;;;5.83
43292;BMP280;28754;47.700;7.924;2023-12-20T11:57:35;91526.91;;;5.85
43292;BMP280;28754;47.700;7.924;2023-12-20T12:00:22;91533.63;;;5.91
43292;BMP280;28754;47.700;7.924;2023-12-20T12:03:09;91524.78;;;5.94
43292;BMP280;28754;47.700;7.924;2023-12-20T12:05:56;91525.78;;;5.93
43292;BMP280;28754;47.700;7.924;2023-12-20T12:08:43;91518.06;;;5.88
43292;BMP280;28754;47.700;7.924;2023-12-20T12:11:30;91525.59;;;5.83
43292;BMP280;28754;47.700;7.924;2023-12-20T12:14:20;91520.66;;;5.77
43292;BMP280;28754;47.700;7.924;2023-12-20T12:17:11;91525.72;;;5.77
43292;BMP280;28754;47.700;7.924;2023-12-20T12:20:06;91518.66;;;5.79
43292;BMP280;28754;47.700;7.924;2023-12-20T12:23:04;91522.41;;;5.76
43292;BMP280;28754;47.700;7.924;2023-12-20T12:25:51;91525.72;;;5.77
43292;BMP280;28754;47.700;7.924;2023-12-20T12:28:41;91516.78;;;5.74
43292;BMP280;28754;47.700;7.924;2023-12-20T12:31:28;91515.25;;;5.73
43292;BMP280;28754;47.700;7.924;2023-12-20T12:34:15;91520.34;;;5.73
43292;BMP280;28754;47.700;7.924;2023-12-20T12:37:04;91517.78;;;5.73
43292;BMP280;28754;47.700;7.924;2023-12-20T12:39:53;91525.63;;;5.72
43292;BMP280;28754;47.700;7.924;2023-12-20T12:42:43;91531.34;;;5.67
43292;BMP280;28754;47.700;7.924;2023-12-20T12:45:30;91527.72;;;5.63
43292;BMP280;28754;47.700;7.924;2023-12-20T12:48:17;91533.13;;;5.55
43292;BMP280;28754;47.700;7.924;2023-12-20T12:51:04;91541.75;;;5.43
43292;BMP280;28754;47.700;7.924;2023-12-20T12:53:51;91544.88;;;5.34
43292;BMP280;28754;47.700;7.924;2023-12-20T12:56:37;91544.88;;;5.22
43292;BMP280;28754;47.700;7.924;2023-12-20T12:59:25;91540.13;;;5.14
43292;BMP280;28754;47.700;7.924;2023-12-20T13:02:13;91539.03;;;5.11
43292;BMP280;28754;47.700;7.924;2023-12-20T13:05:00;91548.72;;;5.02
43292;BMP280;28754;47.700;7.924;2023-12-20T13:07:49;91531.97;;;5.01
43292;BMP280;28754;47.700;7.924;2023-12-20T13:10:35;91540.69;;;5.05
43292;BMP280;28754;47.700;7.924;2023-12-20T13:13:22;91550.28;;;5.03
43292;BMP280;28754;47.700;7.924;2023-12-20T13:16:09;91543.44;;;5.04
43292;BMP280;28754;47.700;7.924;2023-12-20T13:18:58;91549.28;;;5.04
43292;BMP280;28754;47.700;7.924;2023-12-20T13:21:46;91545.31;;;5.08
43292;BMP280;28754;47.700;7.924;2023-12-20T13:24:32;91547.66;;;5.10
43292;BMP280;28754;47.700;7.924;2023-12-20T13:27:19;91553.03;;;5.13
43292;BMP280;28754;47.700;7.924;2023-12-20T13:30:07;91559.00;;;5.18
43292;BMP280;28754;47.700;7.924;2023-12-20T13:32:53;91559.78;;;5.19
43292;BMP280;28754;47.700;7.924;2023-12-20T13:35:40;91562.00;;;5.15
43292;BMP280;28754;47.700;7.924;2023-12-20T13:38:27;91544.88;;;5.11
43292;BMP280;28754;47.700;7.924;2023-12-20T13:41:13;91553.38;;;5.05
43292;BMP280;28754;47.700;7.924;2023-12-20T13:44:00;91565.53;;;5.03
43292;BMP280;28754;47.700;7.924;2023-12-20T13:46:49;91563.84;;;4.97
43292;BMP280;28754;47.700;7.924;2023-12-20T13:49:36;91559.22;;;4.94
43292;BMP280;28754;47.700;7.924;2023-12-20T13:52:23;91566.38;;;4.97
43292;BMP280;28754;47.700;7.924;2023-12-20T13:55:09;91561.31;;;4.97
43292;BMP280;28754;47.700;7.924;2023-12-20T13:58:21;91578.31;;;4.97
43292;BMP280;28754;47.700;7.924;2023-12-20T14:03:55;91571.78;;;4.89
43292;BMP280;28754;47.700;7.924;2023-12-20T14:06:42;91554.91;;;4.83
43292;BMP280;28754;47.700;7.924;2023-12-20T14:12:40;91577.09;;;4.88
43292;BMP280;28754;47.700;7.924;2023-12-20T14:18:20;91576.84;;;4.89
43292;BMP280;28754;47.700;7.924;2023-12-20T14:24:01;91567.59;;;4.83
43292;BMP280;28754;47.700;7.924;2023-12-20T14:29:45;91571.13;;;4.82
43292;BMP280;28754;47.700;7.924;2023-12-20T14:32:35;91579.84;;;4.86
43292;BMP280;28754;47.700;7.924;2023-12-20T14:35:24;91579.72;;;4.81
43292;BMP280;28754;47.700;7.924;2023-12-20T14:38:11;91594.06;;;4.87
43292;BMP280;28754;47.700;7.924;2023-12-20T14:41:08;91589.34;;;4.91
43292;BMP280;28754;47.700;7.924;2023-12-20T14:43:59;91584.03;;;4.92
43292;BMP280;28754;47.700;7.924;2023-12-20T14:46:53;91583.03;;;4.93
43292;BMP280;28754;47.700;7.924;2023-12-20T14:49:41;91567.50;;;4.90
43292;BMP280;28754;47.700;7.924;2023-12-20T14:52:32;91578.72;;;4.94
43292;BMP280;28754;47.700;7.924;2023-12-20T14:55:17;91570.34;;;4.93
43292;BMP280;28754;47.700;7.924;2023-12-20T14:58:04;91581.72;;;5.02
43292;BMP280;28754;47.700;7.924;2023-12-20T15:03:34;91577.44;;;5.03
43292;BMP280;28754;47.700;7.924;2023-12-20T15:09:10;91567.81;;;4.93
43292;BMP280;28754;47.700;7.924;2023-12-20T15:12:13;91572.69;;;4.95
43292;BMP280;28754;47.700;7.924;2023-12-20T15:18:13;91577.66;;;4.90
43292;BMP280;28754;47.700;7.924;2023-12-20T15:21:02;91571.13;;;4.82
43292;BMP280;28754;47.700;7.924;2023-12-20T15:23:55;91585.38;;;4.83
43292;BMP280;28754;47.700;7.924;2023-12-20T15:27:06;91581.16;;;4.78
43292;BMP280;28754;47.700;7.924;2023-12-20T15:29:53;91579.94;;;4.69
43292;BMP280;28754;47.700;7.924;2023-12-20T15:32:43;91585.84;;;4.63
43292;BMP280;28754;47.700;7.924;2023-12-20T15:35:36;91593.03;;;4.66
43292;BMP280;28754;47.700;7.924;2023-12-20T15:38:35;91567.19;;;4.57
43292;BMP280;28754;47.700;7.924;2023-12-20T15:41:38;91598.75;;;4.61
43292;BMP280;28754;47.700;7.924;2023-12-20T15:47:16;91582.13;;;4.65
43292;BMP280;28754;47.700;7.924;2023-12-20T15:50:06;91573.94;;;4.63
43292;BMP280;28754;47.700;7.924;2023-12-20T15:53:01;91601.34;;;4.73
43292;BMP280;28754;47.700;7.924;2023-12-20T16:01:06;91562.91;;;4.58
43292;BMP280;28754;47.700;7.924;2023-12-20T16:03:54;91575.47;;;4.53
43292;BMP280;28754;47.700;7.924;2023-12-20T16:06:48;91574.03;;;4.45
43292;BMP280;28754;47.700;7.924;2023-12-20T16:09:49;91570.56;;;4.40
43292;BMP280;28754;47.700;7.924;2023-12-20T16:13:06;91583.47;;;4.39
43292;BMP280;28754;47.700;7.924;2023-12-20T16:15:56;91583.41;;;4.45
43292;BMP280;28754;47.700;7.924;2023-12-20T16:18:51;91588.47;;;4.45
43292;BMP280;28754;47.700;7.924;2023-12-20T16:21:37;91579.19;;;4.39
43292;BMP280;28754;47.700;7.924;2023-12-20T16:24:24;91585.00;;;4.40
43292;BMP280;28754;47.700;7.924;2023-12-20T16:29:53;91582.47;;;4.40
43292;BMP280;28754;47.700;7.924;2023-12-20T16:35:30;91583.41;;;4.45
43292;BMP280;28754;47.700;7.924;2023-12-20T16:38:17;91581.50;;;4.41
43292;BMP280;28754;47.700;7.924;2023-12-20T16:41:04;91588.88;;;4.42
43292;BMP280;28754;47.700;7.924;2023-12-20T16:43:50;91585.00;;;4.40
43292;BMP280;28754;47.700;7.924;2023-12-20T16:46:37;91579.94;;;4.40
43292;BMP280;28754;47.700;7.924;2023-12-20T16:49:24;91584.81;;;4.41
43292;BMP280;28754;47.700;7.924;2023-12-20T16:52:10;91577.53;;;4.44
43292;BMP280;28754;47.700;7.924;2023-12-20T16:54:57;91578.88;;;4.47
43292;BMP280;28754;47.700;7.924;2023-12-20T16:57:43;91589.13;;;4.52
43292;BMP280;28754;47.700;7.924;2023-12-20T17:00:30;91594.97;;;4.52
43292;BMP280;28754;47.700;7.924;2023-12-20T17:03:17;91586.41;;;4.53
43292;BMP280;28754;47.700;7.924;2023-12-20T17:06:07;91577.44;;;4.51
43292;BMP280;28754;47.700;7.924;2023-12-20T17:08:54;91579.41;;;4.49
43292;BMP280;28754;47.700;7.924;2023-12-20T17:11:41;91586.25;;;4.48